TAF and METAR

Decoding for American and Canadian METARs and TAFs is not fully implemented.

Could not understand the following METAR

MMMA 201443Z 15011KT 8SM BKN018TCU 30/26 A2993 RMK SLP134 52015 918 8/200 ISOL CI

TAF for General Servando Canales International Airport

TAF MMMA 200535Z 2006/2106 13012KT P6SM SCT020 FM201500 13015G25KT P6SM SCT020 FM210100 13012KT P6SM SCT030
Report created 20. sep 07:35

between 20. sep 08:00 - 21. sep 08:00

wind 12 knots from SE (130°)
General Servando Canales International Airport in Mexico at 8m

Latest 5 airports